createdAt,value
2018-04-16T00:00:28.663Z,61.70
2018-04-16T00:02:55.623Z,61.50
2018-04-16T00:05:21.990Z,61.40
2018-04-16T00:07:48.255Z,61.50
2018-04-16T00:10:14.559Z,61.50
2018-04-16T00:12:40.898Z,61.60
2018-04-16T00:15:07.148Z,61.70
2018-04-16T00:17:33.605Z,61.90
2018-04-16T00:19:59.827Z,62.10
2018-04-16T00:22:26.061Z,62.20
2018-04-16T00:24:52.565Z,62.20
2018-04-16T00:27:18.797Z,62.00
2018-04-16T00:29:46.039Z,62.10
2018-04-16T00:32:18.551Z,62.00
2018-04-16T00:34:50.814Z,62.30
2018-04-16T00:37:23.075Z,62.50
2018-04-16T00:42:53.640Z,62.60
2018-04-16T00:45:26.182Z,62.70
2018-04-16T00:47:58.507Z,62.90
2018-04-16T00:50:30.918Z,63.00
2018-04-16T00:53:03.461Z,63.40
2018-04-16T00:55:35.891Z,63.70
2018-04-16T00:58:08.247Z,63.90
2018-04-16T01:00:40.706Z,63.80
2018-04-16T01:03:13.792Z,64.40
2018-04-16T01:05:46.378Z,64.30
2018-04-16T01:08:18.728Z,64.50
2018-04-16T01:13:50.159Z,64.90
2018-04-16T01:16:23.359Z,65.30
2018-04-16T01:18:56.479Z,65.60
2018-04-16T01:21:28.830Z,65.30
2018-04-16T01:24:01.236Z,65.40
2018-04-16T01:26:33.653Z,65.60
2018-04-16T01:29:06.168Z,65.60
2018-04-16T01:31:38.577Z,65.50
2018-04-16T01:34:10.848Z,65.70
2018-04-16T01:36:43.495Z,65.60
2018-04-16T01:39:16.921Z,65.50
2018-04-16T01:41:50.100Z,65.60
2018-04-16T01:44:23.160Z,65.60
2018-04-16T01:46:55.542Z,65.50
2018-04-16T01:49:27.937Z,65.50
2018-04-16T01:52:00.238Z,65.40
2018-04-16T01:54:33.330Z,65.40
2018-04-16T01:57:05.578Z,65.40
2018-04-16T01:59:37.994Z,65.40
2018-04-16T02:02:10.413Z,65.40
2018-04-16T02:04:43.499Z,65.50
2018-04-16T02:07:16.040Z,65.50
2018-04-16T02:09:48.517Z,65.40
2018-04-16T02:12:20.840Z,65.30
2018-04-16T02:14:53.152Z,65.30
2018-04-16T02:17:26.312Z,65.50
2018-04-16T02:19:58.699Z,65.40
2018-04-16T02:22:31.024Z,65.50
2018-04-16T02:25:03.365Z,65.40
2018-04-16T02:27:35.654Z,65.30
2018-04-16T02:30:07.911Z,65.40
2018-04-16T02:32:40.265Z,65.40
2018-04-16T02:35:12.511Z,65.40
2018-04-16T02:37:44.852Z,65.50
2018-04-16T02:40:17.154Z,65.50
2018-04-16T02:42:49.518Z,65.60
2018-04-16T02:45:22.507Z,65.80
2018-04-16T02:47:55.678Z,65.80
2018-04-16T02:50:28.798Z,65.90
2018-04-16T02:53:01.221Z,65.80
2018-04-16T02:55:33.562Z,65.90
2018-04-16T02:58:06.185Z,65.90
2018-04-16T03:00:39.349Z,65.90
2018-04-16T03:03:11.740Z,65.90
2018-04-16T03:05:44.019Z,66.00
2018-04-16T03:08:16.367Z,66.70
2018-04-16T03:10:55.583Z,65.90
2018-04-16T03:13:28.670Z,66.00
2018-04-16T03:16:01.927Z,66.10
2018-04-16T03:18:34.212Z,66.00
2018-04-16T03:21:06.706Z,66.00
2018-04-16T03:23:38.894Z,66.20
2018-04-16T03:26:11.235Z,66.20
2018-04-16T03:28:43.581Z,66.00
2018-04-16T03:31:16.213Z,65.90
2018-04-16T03:33:48.581Z,66.00
2018-04-16T03:36:21.935Z,66.30
2018-04-16T03:38:54.266Z,66.20
2018-04-16T03:41:27.393Z,66.30
2018-04-16T03:43:59.770Z,66.30
2018-04-16T03:46:32.154Z,66.30
2018-04-16T03:49:04.538Z,66.20
2018-04-16T03:51:36.869Z,66.30
2018-04-16T03:54:03.172Z,66.80
2018-04-16T03:56:30.146Z,66.70
2018-04-16T03:58:57.110Z,67.00
2018-04-16T04:01:23.297Z,66.90
2018-04-16T04:03:49.486Z,66.80
2018-04-16T04:06:16.548Z,67.10
2018-04-16T04:08:42.795Z,67.10
2018-04-16T04:11:08.995Z,67.30
2018-04-16T04:13:35.254Z,67.20
2018-04-16T04:16:01.509Z,68.20
2018-04-16T04:18:27.786Z,67.40
2018-04-16T04:20:54.008Z,67.30
2018-04-16T04:23:32.518Z,67.40
2018-04-16T04:26:11.200Z,67.40
2018-04-16T04:28:49.688Z,67.50
2018-04-16T04:31:15.860Z,67.40
2018-04-16T04:33:42.109Z,67.30
2018-04-16T04:36:08.306Z,67.50
2018-04-16T04:38:34.506Z,67.60
2018-04-16T04:41:00.715Z,67.70
2018-04-16T04:43:26.911Z,67.50
2018-04-16T04:45:53.880Z,67.60
2018-04-16T04:48:21.790Z,67.60
2018-04-16T04:50:47.976Z,67.60
2018-04-16T04:53:14.277Z,67.30
2018-04-16T04:55:40.507Z,67.40
2018-04-16T04:58:06.699Z,67.40
2018-04-16T05:00:33.676Z,67.50
2018-04-16T05:03:00.602Z,67.70
2018-04-16T05:05:26.811Z,67.60
2018-04-16T05:07:53.320Z,67.50
2018-04-16T05:10:19.537Z,67.50
2018-04-16T05:12:45.731Z,67.50
2018-04-16T05:15:11.961Z,67.70
2018-04-16T05:17:38.147Z,67.70
2018-04-16T05:20:04.343Z,67.80
2018-04-16T05:22:30.543Z,67.90
2018-04-16T05:24:57.537Z,68.20
2018-04-16T05:27:23.734Z,68.10
2018-04-16T05:29:51.435Z,68.40
2018-04-16T05:32:17.659Z,68.40
2018-04-16T05:34:44.637Z,68.30
2018-04-16T05:37:10.860Z,68.20
2018-04-16T05:39:37.097Z,68.40
2018-04-16T05:42:03.437Z,68.60
2018-04-16T05:44:29.718Z,68.80
2018-04-16T05:46:55.951Z,68.90
2018-04-16T05:49:22.233Z,69.20
2018-04-16T05:51:48.398Z,69.80
2018-04-16T05:54:15.352Z,71.80
2018-04-16T05:56:41.579Z,71.80
2018-04-16T05:59:07.823Z,72.70
2018-04-16T06:01:34.830Z,72.70
2018-04-16T06:04:01.051Z,72.60
2018-04-16T06:06:27.338Z,72.60
2018-04-16T06:08:53.606Z,72.30
2018-04-16T06:11:19.795Z,71.90
2018-04-16T06:13:46.013Z,71.70
2018-04-16T06:16:13.039Z,70.30
2018-04-16T06:18:39.263Z,70.20
2018-04-16T06:21:06.374Z,70.00
2018-04-16T06:23:32.605Z,69.90
2018-04-16T06:25:59.533Z,69.70
2018-04-16T06:28:25.782Z,69.60
2018-04-16T06:30:52.011Z,69.40
2018-04-16T06:33:18.220Z,69.00
2018-04-16T06:35:45.317Z,69.10
2018-04-16T06:38:11.639Z,68.80
2018-04-16T06:40:37.888Z,68.00
2018-04-16T06:43:04.327Z,67.10
2018-04-16T06:45:30.627Z,67.60
2018-04-16T06:47:56.866Z,66.70
2018-04-16T06:50:23.095Z,66.20
2018-04-16T06:52:49.316Z,66.20
2018-04-16T06:55:15.504Z,66.30
2018-04-16T06:57:41.747Z,66.10
2018-04-16T07:00:07.952Z,66.00
2018-04-16T07:02:34.251Z,65.10
2018-04-16T07:05:00.500Z,64.70
2018-04-16T07:07:26.831Z,64.60
2018-04-16T07:09:53.628Z,64.30
2018-04-16T07:12:19.960Z,64.40
2018-04-16T07:14:46.163Z,64.30
2018-04-16T07:17:13.187Z,64.90
2018-04-16T07:19:39.435Z,64.10
2018-04-16T07:22:05.624Z,64.70
2018-04-16T07:24:31.891Z,64.90
2018-04-16T07:26:58.083Z,65.10
2018-04-16T07:29:24.358Z,65.30
2018-04-16T07:31:50.573Z,65.20
2018-04-16T07:34:17.796Z,66.00
2018-04-16T07:36:44.808Z,66.20
2018-04-16T07:39:11.047Z,66.20
2018-04-16T07:41:38.046Z,64.90
2018-04-16T07:44:04.224Z,64.80
2018-04-16T07:46:30.412Z,64.70
2018-04-16T07:48:56.693Z,64.90
2018-04-16T07:51:22.887Z,65.20
2018-04-16T07:53:49.094Z,65.70
2018-04-16T07:56:16.102Z,65.50
2018-04-16T07:58:42.380Z,65.40
2018-04-16T08:01:08.590Z,64.30
2018-04-16T08:03:34.790Z,64.10
2018-04-16T08:06:01.760Z,63.10
2018-04-16T08:08:27.967Z,63.00
2018-04-16T08:10:54.927Z,62.10
2018-04-16T08:13:21.900Z,62.40
2018-04-16T08:15:48.111Z,62.10
2018-04-16T08:18:14.310Z,62.30
2018-04-16T08:20:40.632Z,61.20
2018-04-16T08:23:06.887Z,61.60
2018-04-16T08:25:33.127Z,61.90
2018-04-16T08:27:59.314Z,62.00
2018-04-16T08:30:25.498Z,61.40
2018-04-16T08:32:51.742Z,60.40
2018-04-16T08:35:17.936Z,60.60
2018-04-16T08:37:44.144Z,61.00
2018-04-16T08:40:10.450Z,60.40
2018-04-16T08:42:36.791Z,60.00
2018-04-16T08:45:03.008Z,60.20
2018-04-16T08:47:29.269Z,60.50
2018-04-16T08:49:55.599Z,60.80
2018-04-16T08:52:21.837Z,61.70
2018-04-16T08:54:48.112Z,59.60
2018-04-16T08:57:14.350Z,60.50
2018-04-16T08:59:40.617Z,61.30
2018-04-16T09:02:06.866Z,61.00
2018-04-16T09:04:33.119Z,60.90
2018-04-16T09:07:00.074Z,59.00
2018-04-16T09:09:27.048Z,58.30
2018-04-16T09:11:53.286Z,58.30
2018-04-16T09:14:20.227Z,58.80
2018-04-16T09:16:46.445Z,58.70
2018-04-16T09:19:12.687Z,59.30
2018-04-16T09:21:40.448Z,58.40
2018-04-16T09:24:06.717Z,58.10
2018-04-16T09:26:33.687Z,57.20
2018-04-16T09:29:00.917Z,56.50
2018-04-16T09:31:27.123Z,56.90
2018-04-16T09:33:53.338Z,57.40
2018-04-16T09:36:20.307Z,56.10
2018-04-16T09:38:47.248Z,55.60
2018-04-16T09:41:13.495Z,55.60
2018-04-16T09:43:40.495Z,54.50
2018-04-16T09:46:06.729Z,54.50
2018-04-16T09:48:33.949Z,54.90
2018-04-16T09:51:00.895Z,55.00
2018-04-16T09:53:27.252Z,54.90
2018-04-16T09:55:54.994Z,54.20
2018-04-16T09:58:21.182Z,54.10
2018-04-16T10:00:50.317Z,53.00
2018-04-16T10:03:17.295Z,52.70
2018-04-16T10:05:44.335Z,51.20
2018-04-16T10:08:11.282Z,51.50
2018-04-16T10:10:37.495Z,51.40
2018-04-16T10:13:03.808Z,51.40
2018-04-16T10:15:30.290Z,51.00
2018-04-16T10:17:56.578Z,50.40
2018-04-16T10:20:22.719Z,48.80
2018-04-16T10:22:49.682Z,49.10
2018-04-16T10:25:15.909Z,49.00
2018-04-16T10:27:42.261Z,50.10
2018-04-16T10:30:08.688Z,50.80
2018-04-16T10:32:35.627Z,50.30
2018-04-16T10:35:01.956Z,50.30
2018-04-16T10:37:28.197Z,50.70
2018-04-16T10:39:54.477Z,51.70
2018-04-16T10:42:20.750Z,51.80
2018-04-16T10:44:46.944Z,50.20
2018-04-16T10:47:14.017Z,50.00
2018-04-16T10:49:40.277Z,49.90
2018-04-16T10:52:13.622Z,49.70
2018-04-16T10:54:39.853Z,49.80
2018-04-16T10:57:06.118Z,51.10
2018-04-16T10:59:32.594Z,51.40
2018-04-16T11:01:59.521Z,48.60
2018-04-16T11:04:25.751Z,47.70
2018-04-16T11:06:51.958Z,48.70
2018-04-16T11:09:18.235Z,49.00
2018-04-16T11:11:44.536Z,49.30
2018-04-16T11:14:10.859Z,49.30
2018-04-16T11:16:37.096Z,49.90
2018-04-16T11:19:04.054Z,49.70
2018-04-16T11:21:31.111Z,49.40
2018-04-16T11:23:57.322Z,49.30
2018-04-16T11:26:23.632Z,49.10
2018-04-16T11:28:49.803Z,47.70
2018-04-16T11:31:15.963Z,47.30
2018-04-16T11:33:42.185Z,47.70
2018-04-16T11:36:08.401Z,48.60
2018-04-16T11:38:34.629Z,48.20
2018-04-16T11:41:00.840Z,47.30
2018-04-16T11:43:27.160Z,46.60
2018-04-16T11:45:54.201Z,45.90
2018-04-16T11:48:20.355Z,45.80
2018-04-16T11:50:47.337Z,46.70
2018-04-16T11:53:13.782Z,46.70
2018-04-16T11:55:40.927Z,45.80
2018-04-16T11:58:07.144Z,45.80
2018-04-16T12:00:34.180Z,46.60
2018-04-16T12:03:00.432Z,45.80
2018-04-16T12:05:26.644Z,46.50
2018-04-16T12:07:52.848Z,46.70
2018-04-16T12:10:19.244Z,45.70
2018-04-16T12:12:45.517Z,47.10
2018-04-16T12:15:12.491Z,46.10
2018-04-16T12:17:38.815Z,46.00
2018-04-16T12:20:05.082Z,47.10
2018-04-16T12:22:31.283Z,46.80
2018-04-16T12:24:57.499Z,46.00
2018-04-16T12:27:23.888Z,46.70
2018-04-16T12:29:50.083Z,47.30
2018-04-16T12:32:16.270Z,45.10
2018-04-16T12:34:42.602Z,45.10
2018-04-16T12:37:09.799Z,45.30
2018-04-16T12:39:40.122Z,46.60
2018-04-16T12:42:06.577Z,46.50
2018-04-16T12:44:32.796Z,46.10
2018-04-16T12:46:59.750Z,47.10
2018-04-16T12:49:25.991Z,47.00
2018-04-16T12:51:52.213Z,46.40
2018-04-16T12:54:19.168Z,45.30
2018-04-16T12:56:46.147Z,45.00
2018-04-16T12:59:12.421Z,44.90
2018-04-16T13:01:38.642Z,44.20
2018-04-16T13:04:04.875Z,44.50
2018-04-16T13:06:31.091Z,44.80
2018-04-16T13:08:58.092Z,45.60
2018-04-16T13:11:25.822Z,45.10
2018-04-16T13:13:52.066Z,45.00
2018-04-16T13:16:18.329Z,44.60
2018-04-16T13:18:44.718Z,43.60
2018-04-16T13:21:11.029Z,43.00
2018-04-16T13:23:37.333Z,44.30
2018-04-16T13:26:03.641Z,44.80
2018-04-16T13:28:29.839Z,44.10
2018-04-16T13:30:56.787Z,44.10
2018-04-16T13:33:22.985Z,44.00
2018-04-16T13:35:49.259Z,45.00
2018-04-16T13:38:15.602Z,44.70
2018-04-16T13:40:42.657Z,45.10
2018-04-16T13:43:10.348Z,45.00
2018-04-16T13:45:37.280Z,44.70
2018-04-16T13:48:03.556Z,44.60
2018-04-16T13:50:30.508Z,42.90
2018-04-16T13:52:57.439Z,42.70
2018-04-16T13:55:23.671Z,42.50
2018-04-16T13:57:49.904Z,43.70
2018-04-16T14:00:16.146Z,43.00
2018-04-16T14:02:42.395Z,43.10
2018-04-16T14:05:09.367Z,43.20
2018-04-16T14:07:36.330Z,43.90
2018-04-16T14:10:02.575Z,43.10
2018-04-16T14:12:29.525Z,43.60
2018-04-16T14:14:55.740Z,43.50
2018-04-16T14:17:21.979Z,43.80
2018-04-16T14:19:48.166Z,42.70
2018-04-16T14:22:15.164Z,42.00
2018-04-16T14:24:41.457Z,42.00
2018-04-16T14:27:07.706Z,42.20
2018-04-16T14:29:33.913Z,41.90
2018-04-16T14:32:00.172Z,41.30
2018-04-16T14:34:28.120Z,41.90
2018-04-16T14:36:54.329Z,41.80
2018-04-16T14:39:20.567Z,41.90
2018-04-16T14:41:46.853Z,41.70
2018-04-16T14:44:13.123Z,42.70
2018-04-16T14:46:39.390Z,43.40
2018-04-16T14:49:05.603Z,43.90
2018-04-16T14:51:32.535Z,44.60
2018-04-16T14:53:59.499Z,45.30
2018-04-16T14:56:25.871Z,45.10
2018-04-16T14:58:53.073Z,43.70
2018-04-16T15:01:19.358Z,43.70
2018-04-16T15:03:45.628Z,43.80
2018-04-16T15:06:11.903Z,44.60
2018-04-16T15:08:38.155Z,45.00
2018-04-16T15:11:04.400Z,44.50
2018-04-16T15:13:37.531Z,44.40
2018-04-16T15:16:04.078Z,44.60
2018-04-16T15:18:31.033Z,45.30
2018-04-16T15:20:58.116Z,44.90
2018-04-16T15:23:24.822Z,44.80
2018-04-16T15:25:51.595Z,44.30
2018-04-16T15:28:17.776Z,44.70
2018-04-16T15:30:44.479Z,44.10
2018-04-16T15:33:10.734Z,44.00
2018-04-16T15:35:37.999Z,44.20
2018-04-16T15:38:05.426Z,43.60
2018-04-16T15:40:32.615Z,43.60
2018-04-16T15:42:58.850Z,43.70
2018-04-16T15:45:25.061Z,43.80
2018-04-16T15:47:51.284Z,43.60
2018-04-16T15:50:17.545Z,43.40
2018-04-16T15:52:43.837Z,43.10
2018-04-16T15:55:10.931Z,42.20
2018-04-16T15:57:37.937Z,42.10
2018-04-16T16:00:04.148Z,42.10
2018-04-16T16:02:30.347Z,43.20
2018-04-16T16:04:56.612Z,44.30
2018-04-16T16:07:22.866Z,44.50
2018-04-16T16:09:49.056Z,45.00
2018-04-16T16:12:15.423Z,45.00
2018-04-16T16:14:41.619Z,45.20
2018-04-16T16:17:07.830Z,44.70
2018-04-16T16:19:34.041Z,45.40
2018-04-16T16:22:00.212Z,45.70
2018-04-16T16:24:27.120Z,45.70
2018-04-16T16:26:53.309Z,45.60
2018-04-16T16:29:20.200Z,45.80
2018-04-16T16:31:46.355Z,45.70
2018-04-16T16:34:12.773Z,45.80
2018-04-16T16:36:38.930Z,45.80
2018-04-16T16:39:05.204Z,45.90
2018-04-16T16:41:31.423Z,46.40
2018-04-16T16:43:57.593Z,46.50
2018-04-16T16:46:24.571Z,47.30
2018-04-16T16:48:50.922Z,46.70
2018-04-16T16:51:17.831Z,47.10
2018-04-16T16:53:44.104Z,46.90
2018-04-16T16:56:10.307Z,47.40
2018-04-16T16:58:36.480Z,47.40
2018-04-16T17:01:02.681Z,47.50
2018-04-16T17:03:28.859Z,47.50
2018-04-16T17:05:55.851Z,47.70
2018-04-16T17:08:22.055Z,47.60
2018-04-16T17:10:48.288Z,47.50
2018-04-16T17:13:15.243Z,48.10
2018-04-16T17:15:42.371Z,48.10
2018-04-16T17:18:08.575Z,48.00
2018-04-16T17:20:34.767Z,48.10
2018-04-16T17:23:00.935Z,48.30
2018-04-16T17:25:27.160Z,48.80
2018-04-16T17:27:54.196Z,49.10
2018-04-16T17:30:20.342Z,48.80
2018-04-16T17:32:46.559Z,48.50
2018-04-16T17:35:12.833Z,48.30
2018-04-16T17:37:39.783Z,48.50
2018-04-16T17:40:05.996Z,48.50
2018-04-16T17:42:32.187Z,48.70
2018-04-16T17:44:58.392Z,48.70
2018-04-16T17:47:24.819Z,48.80
2018-04-16T17:49:51.035Z,48.70
2018-04-16T17:52:17.978Z,48.60
2018-04-16T17:54:44.958Z,48.80
2018-04-16T17:57:12.010Z,49.00
2018-04-16T17:59:38.197Z,48.80
2018-04-16T18:02:04.383Z,48.70
2018-04-16T18:04:31.303Z,49.10
2018-04-16T18:06:58.262Z,49.20
2018-04-16T18:09:24.465Z,49.10
2018-04-16T18:11:50.634Z,49.10
2018-04-16T18:14:16.881Z,49.30
2018-04-16T18:16:43.157Z,49.30
2018-04-16T18:19:09.318Z,49.40
2018-04-16T18:21:35.515Z,49.50
2018-04-16T18:24:01.776Z,49.70
2018-04-16T18:26:28.750Z,50.10
2018-04-16T18:28:54.920Z,50.10
2018-04-16T18:31:21.119Z,50.20
2018-04-16T18:33:48.013Z,50.20
2018-04-16T18:36:14.227Z,50.10
2018-04-16T18:38:41.133Z,50.40
2018-04-16T18:41:08.154Z,50.90
2018-04-16T18:43:34.327Z,50.90
2018-04-16T18:46:00.589Z,51.00
2018-04-16T18:48:27.659Z,51.20
2018-04-16T18:50:53.914Z,51.20
2018-04-16T18:53:20.862Z,51.40
2018-04-16T18:55:47.096Z,51.30
2018-04-16T18:58:13.299Z,51.50
2018-04-16T19:00:39.494Z,51.60
2018-04-16T19:03:05.711Z,51.70
2018-04-16T19:05:32.669Z,52.00
2018-04-16T19:07:58.914Z,52.00
2018-04-16T19:10:25.858Z,53.10
2018-04-16T19:12:53.607Z,52.40
2018-04-16T19:15:19.835Z,52.40
2018-04-16T19:17:52.058Z,52.60
2018-04-16T19:20:24.351Z,52.70
2018-04-16T19:22:51.284Z,52.90
2018-04-16T19:25:17.446Z,52.80
2018-04-16T19:27:50.601Z,53.00
2018-04-16T19:30:16.832Z,53.10
2018-04-16T19:32:49.229Z,53.20
2018-04-16T19:35:15.798Z,53.30
2018-04-16T19:37:42.031Z,53.30
2018-04-16T19:40:08.511Z,53.30
2018-04-16T19:42:40.667Z,53.60
2018-04-16T19:45:06.927Z,53.60
2018-04-16T19:47:33.099Z,54.00
2018-04-16T19:50:04.229Z,54.10
2018-04-16T19:52:30.430Z,54.10
2018-04-16T19:54:56.792Z,53.90
2018-04-16T19:57:29.103Z,54.20
2018-04-16T19:59:55.321Z,54.20
2018-04-16T20:02:28.471Z,54.50
2018-04-16T20:04:55.480Z,55.10
2018-04-16T20:07:21.682Z,54.50
2018-04-16T20:09:49.406Z,54.60
2018-04-16T20:12:16.318Z,54.70
2018-04-16T20:14:42.899Z,54.70
2018-04-16T20:17:09.939Z,54.50
2018-04-16T20:19:36.111Z,54.50
2018-04-16T20:22:03.119Z,54.60
2018-04-16T20:24:29.368Z,54.60
2018-04-16T20:26:55.543Z,54.60
2018-04-16T20:29:21.720Z,54.70
2018-04-16T20:31:47.900Z,55.00
2018-04-16T20:34:14.126Z,55.00
2018-04-16T20:36:40.419Z,55.10
2018-04-16T20:39:06.733Z,55.10
2018-04-16T20:41:33.000Z,55.10
2018-04-16T20:43:59.195Z,55.30
2018-04-16T20:46:26.863Z,55.10
2018-04-16T20:48:53.130Z,55.10
2018-04-16T20:51:19.291Z,54.80
2018-04-16T20:56:19.613Z,54.90
2018-04-16T20:58:45.883Z,54.90
2018-04-16T21:01:12.986Z,54.80
2018-04-16T21:06:13.331Z,55.00
2018-04-16T21:08:41.757Z,55.10
2018-04-16T21:11:07.986Z,55.10
2018-04-16T21:13:34.175Z,55.00
2018-04-16T21:16:01.299Z,55.10
2018-04-16T21:18:27.482Z,55.00
2018-04-16T21:20:53.709Z,55.10
2018-04-16T21:23:19.982Z,55.20
2018-04-16T21:25:46.972Z,55.40
2018-04-16T21:28:13.297Z,55.40
2018-04-16T21:30:39.443Z,55.50
2018-04-16T21:33:05.590Z,55.40
2018-04-16T21:35:31.886Z,55.60
2018-04-16T21:37:58.053Z,55.50
2018-04-16T21:40:24.960Z,55.80
2018-04-16T21:42:52.157Z,55.80
2018-04-16T21:45:18.362Z,55.90
2018-04-16T21:47:44.665Z,56.00
2018-04-16T21:50:12.021Z,56.40
2018-04-16T21:52:38.241Z,56.20
2018-04-16T21:55:05.343Z,56.30
2018-04-16T21:57:31.511Z,56.20
2018-04-16T21:59:57.708Z,56.30
2018-04-16T22:02:23.913Z,56.30
2018-04-16T22:04:50.059Z,56.20
2018-04-16T22:07:16.217Z,56.60
2018-04-16T22:09:42.401Z,56.20
2018-04-16T22:12:08.563Z,56.30
2018-04-16T22:14:34.711Z,56.40
2018-04-16T22:17:00.993Z,56.50
2018-04-16T22:19:28.691Z,56.60
2018-04-16T22:21:54.850Z,56.60
2018-04-16T22:24:21.013Z,57.20
2018-04-16T22:26:47.322Z,56.60
2018-04-16T22:29:13.521Z,56.70
2018-04-16T22:31:39.701Z,56.60
2018-04-16T22:34:05.911Z,56.60
2018-04-16T22:36:32.078Z,56.80
2018-04-16T22:38:58.238Z,56.70
2018-04-16T22:41:25.192Z,56.80
2018-04-16T22:43:51.362Z,56.70
2018-04-16T22:46:17.527Z,57.40
2018-04-16T22:48:43.748Z,56.90
2018-04-16T22:51:09.983Z,56.80
2018-04-16T22:53:36.134Z,56.90
2018-04-16T22:56:02.346Z,57.00
2018-04-16T22:58:28.486Z,57.20
2018-04-16T23:00:54.643Z,57.10
2018-04-16T23:03:20.869Z,57.10
2018-04-16T23:05:47.134Z,57.20
2018-04-16T23:08:20.383Z,57.10
2018-04-16T23:10:46.596Z,57.30
2018-04-16T23:13:13.620Z,57.40
2018-04-16T23:15:39.882Z,57.40
2018-04-16T23:18:06.366Z,57.40
2018-04-16T23:20:32.660Z,57.60
2018-04-16T23:22:58.865Z,57.50
2018-04-16T23:25:25.295Z,57.70
2018-04-16T23:27:52.242Z,57.80
2018-04-16T23:30:19.911Z,58.00
2018-04-16T23:32:46.272Z,58.10
2018-04-16T23:35:13.369Z,58.10
2018-04-16T23:37:39.599Z,58.10
2018-04-16T23:40:13.565Z,58.20
2018-04-16T23:42:39.745Z,58.20
2018-04-16T23:45:06.692Z,58.10
2018-04-16T23:47:32.899Z,58.10
2018-04-16T23:49:59.096Z,58.10
2018-04-16T23:52:25.409Z,58.10
2018-04-16T23:54:51.628Z,58.30
2018-04-16T23:57:17.843Z,58.30
2018-04-16T23:59:44.088Z,58.30
